Time;durP1;ratioP1;P1;durP2;ratioP2;P2;SDS_P1;SDS_P2;PMS_P1;PMS_P2;Temp;Humidity;BMP_temperature;BMP_pressure;BME280_temperature;BME280_humidity;BME280_pressure;Samples;Min_cycle;Max_cycle;Signal;HPM_P1;HPM_P2
2022/10/22 00:00:41;;;;;;;29.30;14.98;;;;;;;;;;5073932;28;20028;-75
2022/10/22 00:03:06;;;;;;;31.48;13.95;;;;;;;;;;5072503;28;20020;-75
2022/10/22 00:05:31;;;;;;;31.88;15.90;;;;;;;;;;5072650;28;20468;-75
2022/10/22 00:07:56;;;;;;;33.40;14.80;;;;;;;;;;5072699;28;20012;-76
2022/10/22 00:10:22;;;;;;;30.60;14.65;;;;;;;;;;5072766;28;20056;-76
2022/10/22 00:12:47;;;;;;;29.17;14.95;;;;;;;;;;5072505;28;20135;-75
2022/10/22 00:15:12;;;;;;;25.48;14.23;;;;;;;;;;5074162;28;20037;-74
2022/10/22 00:17:38;;;;;;;25.30;14.27;;;;;;;;;;5072203;28;20030;-75
2022/10/22 00:20:04;;;;;;;30.70;14.98;;;;;;;;;;5073467;28;20028;-74
2022/10/22 00:22:29;;;;;;;28.92;14.23;;;;;;;;;;5073382;28;20032;-75
2022/10/22 00:24:54;;;;;;;29.00;14.73;;;;;;;;;;5073445;28;20024;-75
2022/10/22 00:27:19;;;;;;;27.60;14.93;;;;;;;;;;5073486;28;20032;-75
2022/10/22 00:29:45;;;;;;;29.95;14.43;;;;;;;;;;5073436;28;20488;-75
2022/10/22 00:32:10;;;;;;;28.85;14.52;;;;;;;;;;5072053;28;20037;-75
2022/10/22 00:34:35;;;;;;;27.52;14.32;;;;;;;;;;5073288;28;20025;-75
2022/10/22 00:37:00;;;;;;;25.83;14.45;;;;;;;;;;5073243;28;20029;-74
2022/10/22 00:39:27;;;;;;;27.70;14.88;;;;;;;;;;5072012;28;20042;-75
2022/10/22 00:41:54;;;;;;;27.38;14.45;;;;;;;;;;5071900;28;20055;-74
2022/10/22 00:44:57;;;;;;;29.50;15.35;;;;;;;;;;5073503;28;20083;-75
2022/10/22 00:47:24;;;;;;;28.10;13.98;;;;;;;;;;5073467;28;20385;-75
2022/10/22 00:49:52;;;;;;;27.83;14.73;;;;;;;;;;5073161;28;20029;-75
2022/10/22 00:52:17;;;;;;;26.35;15.05;;;;;;;;;;5073055;28;20032;-75
2022/10/22 00:54:43;;;;;;;27.55;15.02;;;;;;;;;;5072719;28;20078;-75
2022/10/22 00:57:08;;;;;;;29.60;15.52;;;;;;;;;;5072927;28;20024;-75
2022/10/22 00:59:34;;;;;;;30.75;14.88;;;;;;;;;;5073321;28;20039;-75
2022/10/22 01:01:59;;;;;;;28.00;15.95;;;;;;;;;;5071662;28;20046;-75
2022/10/22 01:04:25;;;;;;;30.38;15.57;;;;;;;;;;5073029;28;20020;-75
2022/10/22 01:06:50;;;;;;;31.52;15.85;;;;;;;;;;5072925;28;20107;-75
2022/10/22 01:09:27;;;;;;;31.83;16.25;;;;;;;;;;5072953;28;20065;-75
2022/10/22 01:12:07;;;;;;;31.33;15.52;;;;;;;;;;5072902;28;20032;-76
2022/10/22 01:14:40;;;;;;;29.63;15.60;;;;;;;;;;5072856;28;20028;-75
2022/10/22 01:17:18;;;;;;;30.20;16.60;;;;;;;;;;5073434;28;20115;-75
2022/10/22 01:19:58;;;;;;;30.67;15.48;;;;;;;;;;5073093;28;20037;-75
2022/10/22 01:22:34;;;;;;;29.13;15.38;;;;;;;;;;5072779;28;20446;-75
2022/10/22 01:25:09;;;;;;;30.55;15.60;;;;;;;;;;5072763;28;20032;-75
2022/10/22 01:27:54;;;;;;;30.70;15.80;;;;;;;;;;5073006;28;20474;-75
2022/10/22 01:30:20;;;;;;;31.00;15.55;;;;;;;;;;5072994;28;20078;-75
2022/10/22 01:32:50;;;;;;;31.92;16.90;;;;;;;;;;5072659;28;20025;-76
2022/10/22 01:35:19;;;;;;;33.92;17.17;;;;;;;;;;5072682;28;20111;-75
2022/10/22 01:37:49;;;;;;;32.38;16.00;;;;;;;;;;5072836;28;20016;-75
2022/10/22 01:40:15;;;;;;;34.40;17.10;;;;;;;;;;5072810;28;20024;-75
2022/10/22 01:42:41;;;;;;;34.45;17.15;;;;;;;;;;5072777;28;20021;-74
2022/10/22 01:45:11;;;;;;;28.92;15.50;;;;;;;;;;5071346;28;20028;-75
2022/10/22 01:47:40;;;;;;;27.80;15.63;;;;;;;;;;5071792;28;20020;-75
2022/10/22 01:50:18;;;;;;;32.22;15.60;;;;;;;;;;5072599;28;20048;-75
2022/10/22 01:53:17;;;;;;;31.55;16.08;;;;;;;;;;5072507;28;20056;-76
2022/10/22 01:56:01;;;;;;;36.20;16.23;;;;;;;;;;5072517;28;20024;-75
2022/10/22 01:58:53;;;;;;;35.27;15.77;;;;;;;;;;5073067;28;20025;-75
2022/10/22 02:01:36;;;;;;;31.38;15.50;;;;;;;;;;5071298;28;20020;-77
2022/10/22 02:04:13;;;;;;;37.88;14.90;;;;;;;;;;5072495;28;20025;-75
2022/10/22 02:06:42;;;;;;;29.20;14.95;;;;;;;;;;5073375;28;20021;-75
2022/10/22 02:09:09;;;;;;;28.15;13.93;;;;;;;;;;5075949;28;20028;-76
2022/10/22 02:11:34;;;;;;;26.92;14.02;;;;;;;;;;5076297;28;20025;-75
2022/10/22 02:14:03;;;;;;;30.05;14.07;;;;;;;;;;5076403;28;20493;-76
2022/10/22 02:16:44;;;;;;;26.67;13.38;;;;;;;;;;5075813;28;20043;-76
2022/10/22 02:19:29;;;;;;;25.25;13.45;;;;;;;;;;5075840;28;20020;-75
2022/10/22 02:21:54;;;;;;;26.40;13.05;;;;;;;;;;5076008;28;20025;-75
2022/10/22 02:24:21;;;;;;;28.00;14.02;;;;;;;;;;5076045;28;20040;-76
2022/10/22 02:27:00;;;;;;;27.15;13.90;;;;;;;;;;5074404;28;20016;-75
2022/10/22 02:29:32;;;;;;;29.83;14.60;;;;;;;;;;5076240;28;20037;-76
2022/10/22 02:32:00;;;;;;;25.98;14.48;;;;;;;;;;5075629;28;20409;-75
2022/10/22 02:34:29;;;;;;;26.13;14.00;;;;;;;;;;5074649;28;20031;-75
2022/10/22 02:36:56;;;;;;;29.38;14.45;;;;;;;;;;5075462;28;20375;-75
2022/10/22 02:39:22;;;;;;;29.13;14.77;;;;;;;;;;5075452;28;20024;-75
2022/10/22 02:41:47;;;;;;;31.83;15.95;;;;;;;;;;5075403;28;20078;-75
2022/10/22 02:44:13;;;;;;;29.55;15.52;;;;;;;;;;5075581;28;20478;-74
2022/10/22 02:46:39;;;;;;;35.40;16.23;;;;;;;;;;5075300;28;20099;-75
2022/10/22 02:49:04;;;;;;;29.90;15.63;;;;;;;;;;5075495;28;20028;-75
2022/10/22 02:51:30;;;;;;;37.25;16.60;;;;;;;;;;5073831;28;20434;-75
2022/10/22 02:53:55;;;;;;;30.23;15.68;;;;;;;;;;5075142;28;20020;-75
2022/10/22 02:56:20;;;;;;;34.90;16.02;;;;;;;;;;5075140;28;20028;-75
2022/10/22 02:58:45;;;;;;;30.52;16.02;;;;;;;;;;5075057;28;20020;-75
2022/10/22 03:01:11;;;;;;;36.30;16.25;;;;;;;;;;5075021;28;20393;-75
2022/10/22 03:03:36;;;;;;;31.33;15.57;;;;;;;;;;5073710;28;20076;-76
2022/10/22 03:06:01;;;;;;;33.17;16.30;;;;;;;;;;5073686;28;20021;-75
2022/10/22 03:08:27;;;;;;;31.55;15.60;;;;;;;;;;5073618;28;20024;-75
2022/10/22 03:10:52;;;;;;;31.05;15.10;;;;;;;;;;5073624;28;20132;-75
2022/10/22 03:13:17;;;;;;;31.52;15.45;;;;;;;;;;5075001;28;20470;-74
2022/10/22 03:15:42;;;;;;;29.02;14.85;;;;;;;;;;5074692;28;20031;-76
2022/10/22 03:18:08;;;;;;;30.95;15.27;;;;;;;;;;5074390;28;20386;-75
2022/10/22 03:20:33;;;;;;;29.33;15.40;;;;;;;;;;5074896;28;20028;-75
2022/10/22 03:22:59;;;;;;;28.92;15.13;;;;;;;;;;5074773;28;20024;-74
2022/10/22 03:25:27;;;;;;;29.20;15.68;;;;;;;;;;5073209;28;20023;-75
2022/10/22 03:27:54;;;;;;;32.78;15.60;;;;;;;;;;5074567;28;20048;-75
2022/10/22 03:30:19;;;;;;;28.35;14.48;;;;;;;;;;5074419;28;20028;-75
2022/10/22 03:32:44;;;;;;;30.38;15.52;;;;;;;;;;5074292;28;20037;-75
2022/10/22 03:35:10;;;;;;;31.27;15.63;;;;;;;;;;5074387;28;20024;-74
2022/10/22 03:37:35;;;;;;;29.55;15.10;;;;;;;;;;5074162;28;20034;-75
2022/10/22 03:40:02;;;;;;;36.88;16.45;;;;;;;;;;5074196;28;20043;-75
2022/10/22 03:42:28;;;;;;;31.55;15.68;;;;;;;;;;5074098;28;20363;-75
2022/10/22 03:44:53;;;;;;;33.78;15.30;;;;;;;;;;5074150;28;20108;-76
2022/10/22 03:47:18;;;;;;;32.97;16.75;;;;;;;;;;5074350;28;20474;-75
2022/10/22 03:49:44;;;;;;;32.30;15.65;;;;;;;;;;5074099;28;20056;-75
2022/10/22 03:52:13;;;;;;;30.02;15.30;;;;;;;;;;5073993;28;20029;-75
2022/10/22 03:54:39;;;;;;;30.88;14.70;;;;;;;;;;5073898;28;20423;-75
2022/10/22 03:57:05;;;;;;;32.22;14.95;;;;;;;;;;5073850;28;20021;-75
2022/10/22 03:59:39;;;;;;;30.23;15.65;;;;;;;;;;5074087;28;20024;-75
2022/10/22 04:02:04;;;;;;;32.47;15.75;;;;;;;;;;5073587;28;20034;-75
2022/10/22 04:04:30;;;;;;;32.42;16.10;;;;;;;;;;5072530;28;20123;-76
2022/10/22 04:06:55;;;;;;;36.38;14.75;;;;;;;;;;5074016;28;20029;-75
2022/10/22 04:09:21;;;;;;;36.17;15.55;;;;;;;;;;5073678;28;20032;-76
2022/10/22 04:11:46;;;;;;;32.97;15.80;;;;;;;;;;5073646;28;20021;-74
2022/10/22 04:14:12;;;;;;;28.73;14.45;;;;;;;;;;5073577;28;20020;-74
2022/10/22 04:16:39;;;;;;;29.15;15.13;;;;;;;;;;5073552;28;20016;-74
2022/10/22 04:19:04;;;;;;;30.88;15.35;;;;;;;;;;5072222;28;20478;-74
2022/10/22 04:21:30;;;;;;;29.00;14.98;;;;;;;;;;5073589;28;20040;-75
2022/10/22 04:23:56;;;;;;;38.35;15.02;;;;;;;;;;5072145;28;20039;-75
2022/10/22 04:26:21;;;;;;;31.05;15.32;;;;;;;;;;5074048;28;20020;-74
2022/10/22 04:28:48;;;;;;;30.80;15.00;;;;;;;;;;5073666;28;20059;-75
2022/10/22 04:31:18;;;;;;;30.95;14.40;;;;;;;;;;5072940;28;20490;-75
2022/10/22 04:33:44;;;;;;;28.58;15.35;;;;;;;;;;5072062;28;20370;-74
2022/10/22 04:36:13;;;;;;;27.08;15.25;;;;;;;;;;5073318;28;20028;-75
2022/10/22 04:38:39;;;;;;;29.63;15.18;;;;;;;;;;5073597;28;20580;-75
2022/10/22 04:41:13;;;;;;;27.05;13.60;;;;;;;;;;5073366;28;20024;-75
2022/10/22 04:43:39;;;;;;;28.27;14.98;;;;;;;;;;5073416;28;20046;-75
2022/10/22 04:46:08;;;;;;;27.27;14.15;;;;;;;;;;5073238;28;20576;-76
2022/10/22 04:48:37;;;;;;;27.35;14.57;;;;;;;;;;5073147;28;20031;-75
2022/10/22 04:51:02;;;;;;;26.95;13.90;;;;;;;;;;5073168;28;20036;-75
2022/10/22 04:53:28;;;;;;;28.15;14.00;;;;;;;;;;5073111;28;20024;-75
2022/10/22 04:55:53;;;;;;;25.20;13.35;;;;;;;;;;5073054;28;20032;-74
2022/10/22 04:58:19;;;;;;;26.30;13.80;;;;;;;;;;5071722;28;20020;-75
2022/10/22 05:00:44;;;;;;;30.30;14.77;;;;;;;;;;5072984;28;20382;-74
2022/10/22 05:03:09;;;;;;;29.67;14.15;;;;;;;;;;5073176;28;20450;-74
2022/10/22 05:05:34;;;;;;;31.40;14.15;;;;;;;;;;5074148;28;20029;-75
2022/10/22 05:08:00;;;;;;;29.08;14.68;;;;;;;;;;5073161;28;20052;-74
2022/10/22 05:10:25;;;;;;;28.45;13.70;;;;;;;;;;5072915;28;20028;-74
2022/10/22 05:12:50;;;;;;;27.95;13.85;;;;;;;;;;5071574;28;20032;-75
2022/10/22 05:15:15;;;;;;;27.15;14.68;;;;;;;;;;5071651;28;20032;-74
2022/10/22 05:17:41;;;;;;;27.00;13.43;;;;;;;;;;5073075;28;20036;-74
2022/10/22 05:20:07;;;;;;;25.80;13.52;;;;;;;;;;5073572;28;20466;-75
2022/10/22 05:22:33;;;;;;;24.90;13.25;;;;;;;;;;5073147;28;20031;-75
2022/10/22 05:24:58;;;;;;;25.83;13.45;;;;;;;;;;5073869;28;20017;-76
2022/10/22 05:27:24;;;;;;;26.48;13.50;;;;;;;;;;5073343;28;20038;-75
2022/10/22 05:29:49;;;;;;;25.40;13.32;;;;;;;;;;5073502;28;20032;-76
2022/10/22 05:32:14;;;;;;;26.90;14.02;;;;;;;;;;5071374;28;20020;-75
2022/10/22 05:34:40;;;;;;;27.17;13.15;;;;;;;;;;5072971;28;20549;-75
2022/10/22 05:37:05;;;;;;;24.25;13.63;;;;;;;;;;5071367;28;20032;-75
2022/10/22 05:39:30;;;;;;;26.80;13.38;;;;;;;;;;5072896;28;20032;-74
2022/10/22 05:41:56;;;;;;;27.45;14.23;;;;;;;;;;5074394;28;20024;-75
2022/10/22 05:44:21;;;;;;;25.30;13.10;;;;;;;;;;5075229;28;20025;-75
2022/10/22 05:46:46;;;;;;;26.92;12.88;;;;;;;;;;5076420;28;20025;-76
2022/10/22 05:49:14;;;;;;;27.10;12.57;;;;;;;;;;5077313;28;20473;-75
2022/10/22 05:51:39;;;;;;;25.67;13.10;;;;;;;;;;5076330;28;20024;-73
2022/10/22 05:54:06;;;;;;;29.92;13.30;;;;;;;;;;5076395;28;20055;-74
2022/10/22 05:56:33;;;;;;;31.38;13.48;;;;;;;;;;5076325;28;20033;-77
2022/10/22 05:58:59;;;;;;;28.02;13.63;;;;;;;;;;5076432;28;20028;-75
2022/10/22 06:01:32;;;;;;;26.45;13.52;;;;;;;;;;5076153;28;20036;-75
2022/10/22 06:04:00;;;;;;;26.75;13.32;;;;;;;;;;5076004;28;20020;-75
2022/10/22 06:06:34;;;;;;;30.25;14.27;;;;;;;;;;5076399;28;20039;-76
2022/10/22 06:09:04;;;;;;;22.23;12.63;;;;;;;;;;5076090;28;20031;-75
2022/10/22 06:11:29;;;;;;;21.30;12.27;;;;;;;;;;5076372;28;20028;-75
2022/10/22 06:13:54;;;;;;;22.17;12.60;;;;;;;;;;5076317;28;20082;-75
2022/10/22 06:16:19;;;;;;;21.38;12.23;;;;;;;;;;5075857;28;20028;-75
2022/10/22 06:18:45;;;;;;;25.88;12.80;;;;;;;;;;5076254;28;20027;-75
2022/10/22 06:21:13;;;;;;;25.17;11.95;;;;;;;;;;5076055;28;20489;-75
2022/10/22 06:23:39;;;;;;;23.23;13.35;;;;;;;;;;5076320;28;20021;-75
2022/10/22 06:26:06;;;;;;;23.55;12.07;;;;;;;;;;5076123;28;20482;-75
2022/10/22 06:28:31;;;;;;;24.40;12.65;;;;;;;;;;5075601;28;20028;-75
2022/10/22 06:30:57;;;;;;;21.20;12.30;;;;;;;;;;5076002;28;20069;-75
2022/10/22 06:33:23;;;;;;;23.95;12.57;;;;;;;;;;5075948;28;20047;-75
2022/10/22 06:35:48;;;;;;;23.13;12.02;;;;;;;;;;5075783;28;20474;-76
2022/10/22 06:38:14;;;;;;;25.77;12.25;;;;;;;;;;5075989;28;20036;-76
2022/10/22 06:40:42;;;;;;;23.75;12.70;;;;;;;;;;5075755;28;20028;-75
2022/10/22 06:43:08;;;;;;;24.42;12.25;;;;;;;;;;5074063;28;20122;-74
2022/10/22 06:45:33;;;;;;;23.52;12.55;;;;;;;;;;5074070;28;20021;-75
2022/10/22 06:47:58;;;;;;;21.80;12.27;;;;;;;;;;5075548;28;20025;-75
2022/10/22 06:50:23;;;;;;;25.90;12.30;;;;;;;;;;5075479;28;20109;-75
2022/10/22 06:52:49;;;;;;;37.35;13.13;;;;;;;;;;5074923;28;20029;-75
2022/10/22 06:55:14;;;;;;;21.10;11.90;;;;;;;;;;5075479;28;20066;-75
2022/10/22 06:57:39;;;;;;;24.83;12.48;;;;;;;;;;5075386;28;20095;-74
2022/10/22 07:00:06;;;;;;;24.33;12.25;;;;;;;;;;5073707;28;20062;-76
2022/10/22 07:02:31;;;;;;;21.83;11.70;;;;;;;;;;5074845;28;20116;-75
2022/10/22 07:04:57;;;;;;;22.75;11.90;;;;;;;;;;5073827;28;20056;-75
2022/10/22 07:07:22;;;;;;;25.13;12.13;;;;;;;;;;5075731;28;20016;-76
2022/10/22 07:09:48;;;;;;;23.55;12.93;;;;;;;;;;5074855;28;20075;-75
2022/10/22 07:12:14;;;;;;;22.00;12.43;;;;;;;;;;5075011;28;20397;-75
2022/10/22 07:14:39;;;;;;;20.80;12.02;;;;;;;;;;5075328;28;20031;-75
2022/10/22 07:17:04;;;;;;;24.10;12.23;;;;;;;;;;5074986;28;20024;-74
2022/10/22 07:19:30;;;;;;;25.00;11.88;;;;;;;;;;5073632;28;20032;-75
2022/10/22 07:21:55;;;;;;;24.77;12.10;;;;;;;;;;5075629;28;20028;-75
2022/10/22 07:24:21;;;;;;;23.13;13.23;;;;;;;;;;5075116;28;20101;-75
2022/10/22 07:26:46;;;;;;;28.35;12.80;;;;;;;;;;5074880;28;20027;-76
2022/10/22 07:29:14;;;;;;;23.90;13.15;;;;;;;;;;5075738;28;20016;-75
2022/10/22 07:31:39;;;;;;;30.65;12.98;;;;;;;;;;5073724;28;20020;-74
2022/10/22 07:34:04;;;;;;;22.92;12.93;;;;;;;;;;5075095;28;20063;-75
2022/10/22 07:36:30;;;;;;;24.13;12.55;;;;;;;;;;5074843;28;20039;-74
2022/10/22 07:38:57;;;;;;;22.58;12.73;;;;;;;;;;5074501;28;20078;-74
2022/10/22 07:41:23;;;;;;;22.92;12.27;;;;;;;;;;5074565;28;20396;-75
2022/10/22 07:43:49;;;;;;;24.85;12.55;;;;;;;;;;5072883;28;20025;-74
2022/10/22 07:46:14;;;;;;;24.15;12.82;;;;;;;;;;5072728;28;20047;-75
2022/10/22 07:48:39;;;;;;;30.52;12.73;;;;;;;;;;5074360;28;20021;-75
2022/10/22 07:51:05;;;;;;;23.67;12.23;;;;;;;;;;5074220;28;20032;-75
2022/10/22 07:53:31;;;;;;;22.38;13.05;;;;;;;;;;5073923;28;20055;-75
2022/10/22 07:55:56;;;;;;;23.92;13.38;;;;;;;;;;5074021;28;20495;-76
2022/10/22 07:58:23;;;;;;;32.00;13.82;;;;;;;;;;5074059;28;20024;-76
2022/10/22 08:00:49;;;;;;;29.40;13.95;;;;;;;;;;5072578;28;20031;-76
2022/10/22 08:03:16;;;;;;;30.17;14.73;;;;;;;;;;5073699;28;20052;-76
2022/10/22 08:05:44;;;;;;;27.40;13.35;;;;;;;;;;5073366;28;20046;-75
2022/10/22 08:08:11;;;;;;;28.40;14.20;;;;;;;;;;5072929;28;20016;-75
2022/10/22 08:10:37;;;;;;;28.00;14.52;;;;;;;;;;5074408;28;20081;-75
2022/10/22 08:13:03;;;;;;;31.30;13.48;;;;;;;;;;5074856;28;20036;-75
2022/10/22 08:15:29;;;;;;;28.42;14.00;;;;;;;;;;5074305;28;20034;-76
2022/10/22 08:17:55;;;;;;;27.63;13.48;;;;;;;;;;5073194;28;20031;-76
2022/10/22 08:20:20;;;;;;;29.50;14.52;;;;;;;;;;5074627;28;20389;-76
2022/10/22 08:22:45;;;;;;;25.35;13.23;;;;;;;;;;5073297;28;20016;-75
2022/10/22 08:25:11;;;;;;;24.90;12.23;;;;;;;;;;5073482;28;20024;-73
2022/10/22 08:27:37;;;;;;;25.10;13.23;;;;;;;;;;5072537;28;20027;-75
2022/10/22 08:30:03;;;;;;;27.20;13.90;;;;;;;;;;5076220;28;20028;-76
2022/10/22 08:32:28;;;;;;;28.38;12.68;;;;;;;;;;5074140;28;20109;-76
2022/10/22 08:34:54;;;;;;;29.85;13.43;;;;;;;;;;5075206;28;20032;-76
2022/10/22 08:37:19;;;;;;;23.42;11.50;;;;;;;;;;5073709;28;20043;-75
2022/10/22 08:39:44;;;;;;;23.35;11.77;;;;;;;;;;5075955;28;20389;-76
2022/10/22 08:42:15;;;;;;;22.20;10.85;;;;;;;;;;5074953;28;20028;-76
2022/10/22 08:44:59;;;;;;;25.83;12.20;;;;;;;;;;5073928;28;20409;-76
2022/10/22 08:47:49;;;;;;;27.20;12.05;;;;;;;;;;5073802;28;20027;-75
2022/10/22 08:50:23;;;;;;;23.27;11.88;;;;;;;;;;5072463;28;20032;-75
2022/10/22 08:52:53;;;;;;;24.13;11.52;;;;;;;;;;5072221;28;20031;-74
2022/10/22 08:55:23;;;;;;;24.08;11.80;;;;;;;;;;5072157;28;20397;-75
2022/10/22 08:58:02;;;;;;;20.90;10.95;;;;;;;;;;5073010;28;20100;-75
2022/10/22 09:00:54;;;;;;;22.65;10.60;;;;;;;;;;5073423;28;20078;-75
2022/10/22 09:03:33;;;;;;;18.67;10.35;;;;;;;;;;5069637;28;20445;-75
2022/10/22 09:06:10;;;;;;;21.25;10.10;;;;;;;;;;5073007;28;20044;-74
2022/10/22 09:08:37;;;;;;;21.02;10.63;;;;;;;;;;5073348;28;20091;-75
2022/10/22 09:11:14;;;;;;;23.10;11.00;;;;;;;;;;5073495;28;20028;-76
2022/10/22 09:13:42;;;;;;;27.58;10.98;;;;;;;;;;5071821;28;20090;-75
2022/10/22 09:16:10;;;;;;;24.52;10.82;;;;;;;;;;5073785;28;20464;-76
2022/10/22 09:18:53;;;;;;;24.20;11.80;;;;;;;;;;5077376;28;20017;-76
2022/10/22 09:21:33;;;;;;;21.92;11.88;;;;;;;;;;5077442;28;20025;-76
2022/10/22 09:24:08;;;;;;;24.50;11.85;;;;;;;;;;5076951;28;20032;-76
2022/10/22 09:26:39;;;;;;;22.27;12.30;;;;;;;;;;5077105;28;20081;-76
2022/10/22 09:29:05;;;;;;;23.75;12.50;;;;;;;;;;5077239;28;20082;-76
2022/10/22 09:31:32;;;;;;;29.20;12.85;;;;;;;;;;5077350;28;20025;-75
2022/10/22 09:34:04;;;;;;;25.42;12.00;;;;;;;;;;5077082;28;20081;-76
2022/10/22 09:36:30;;;;;;;25.20;12.73;;;;;;;;;;5077231;28;20033;-75
2022/10/22 09:38:58;;;;;;;26.05;12.23;;;;;;;;;;5077028;28;20029;-74
2022/10/22 09:41:30;;;;;;;18.75;10.80;;;;;;;;;;5076612;28;20031;-77
2022/10/22 09:43:56;;;;;;;23.45;12.13;;;;;;;;;;5076672;28;20027;-76
2022/10/22 09:46:25;;;;;;;21.42;11.52;;;;;;;;;;5076644;28;20388;-75
2022/10/22 09:49:01;;;;;;;20.90;11.27;;;;;;;;;;5075443;28;20020;-77
2022/10/22 09:51:47;;;;;;;20.90;11.02;;;;;;;;;;5076443;28;20047;-76
2022/10/22 09:54:20;;;;;;;16.05;10.13;;;;;;;;;;5076541;28;20496;-76
2022/10/22 09:56:50;;;;;;;17.73;10.10;;;;;;;;;;5077143;28;20042;-77
2022/10/22 09:59:17;;;;;;;16.42;9.80;;;;;;;;;;5076749;28;20520;-76
2022/10/22 10:01:43;;;;;;;15.32;9.80;;;;;;;;;;5076268;28;20107;-76
2022/10/22 10:04:15;;;;;;;16.85;9.32;;;;;;;;;;5075101;28;20032;-76
2022/10/22 10:06:42;;;;;;;18.33;9.77;;;;;;;;;;5076767;28;20028;-75
2022/10/22 10:09:16;;;;;;;16.55;9.55;;;;;;;;;;5076143;28;20020;-77
2022/10/22 10:11:53;;;;;;;15.85;9.68;;;;;;;;;;5076419;28;20121;-75
2022/10/22 10:14:31;;;;;;;16.83;9.45;;;;;;;;;;5076081;28;20069;-76
2022/10/22 10:17:08;;;;;;;13.80;9.20;;;;;;;;;;5076011;28;20055;-77
2022/10/22 10:19:51;;;;;;;22.20;9.30;;;;;;;;;;5076609;28;20032;-76
2022/10/22 10:22:40;;;;;;;13.82;8.82;;;;;;;;;;5076383;28;20036;-76
2022/10/22 10:25:25;;;;;;;12.18;8.18;;;;;;;;;;5076203;28;20026;-76
2022/10/22 10:28:03;;;;;;;15.95;9.05;;;;;;;;;;5075263;28;20478;-77
2022/10/22 10:30:31;;;;;;;15.38;8.95;;;;;;;;;;5074798;28;20041;-76
2022/10/22 10:33:28;;;;;;;14.82;9.07;;;;;;;;;;5075946;28;20029;-76
2022/10/22 10:36:06;;;;;;;13.35;8.05;;;;;;;;;;5076237;28;20025;-77
2022/10/22 10:39:01;;;;;;;12.63;8.27;;;;;;;;;;5075698;28;20024;-76
2022/10/22 10:41:51;;;;;;;14.95;8.57;;;;;;;;;;5075803;28;20099;-76
2022/10/22 10:44:38;;;;;;;14.27;8.73;;;;;;;;;;5075626;28;20074;-77
2022/10/22 10:47:22;;;;;;;15.30;7.72;;;;;;;;;;5076024;28;20131;-74
2022/10/22 10:49:53;;;;;;;14.45;8.07;;;;;;;;;;5075731;28;20474;-75
2022/10/22 10:52:29;;;;;;;13.02;8.10;;;;;;;;;;5075306;28;20071;-77
2022/10/22 10:55:21;;;;;;;12.75;8.10;;;;;;;;;;5075559;28;20170;-76
2022/10/22 10:57:55;;;;;;;11.55;7.68;;;;;;;;;;5075331;28;20064;-76
2022/10/22 11:00:21;;;;;;;11.93;7.85;;;;;;;;;;5075162;28;20029;-76
2022/10/22 11:02:46;;;;;;;13.70;7.75;;;;;;;;;;5074954;28;20024;-76
2022/10/22 11:05:21;;;;;;;11.88;7.00;;;;;;;;;;5074985;28;20039;-76
2022/10/22 11:07:52;;;;;;;11.23;7.25;;;;;;;;;;5073783;28;20549;-76
2022/10/22 11:10:32;;;;;;;10.80;7.95;;;;;;;;;;5073649;28;20127;-76
2022/10/22 11:13:05;;;;;;;12.30;6.75;;;;;;;;;;5075060;28;20020;-75
2022/10/22 11:15:33;;;;;;;10.07;5.90;;;;;;;;;;5073631;28;20028;-75
2022/10/22 11:18:17;;;;;;;10.27;6.40;;;;;;;;;;5074686;28;20031;-75
2022/10/22 11:20:49;;;;;;;12.68;6.97;;;;;;;;;;5073521;28;20510;-76
2022/10/22 11:23:27;;;;;;;13.05;6.85;;;;;;;;;;5074533;28;20037;-75
2022/10/22 11:25:52;;;;;;;9.98;6.82;;;;;;;;;;5073298;28;20030;-76
2022/10/22 11:28:26;;;;;;;10.05;7.20;;;;;;;;;;5074803;28;20381;-76
2022/10/22 11:30:58;;;;;;;10.02;7.15;;;;;;;;;;5074642;28;20037;-76
2022/10/22 11:33:32;;;;;;;11.48;7.15;;;;;;;;;;5074283;28;20020;-75
2022/10/22 11:36:01;;;;;;;9.60;7.22;;;;;;;;;;5074458;28;20029;-76
2022/10/22 11:38:27;;;;;;;11.55;7.15;;;;;;;;;;5074110;28;20040;-75
2022/10/22 11:41:14;;;;;;;10.65;7.18;;;;;;;;;;5074285;28;20035;-75
2022/10/22 11:44:06;;;;;;;9.77;6.75;;;;;;;;;;5074397;28;20034;-76
2022/10/22 11:46:53;;;;;;;10.63;7.53;;;;;;;;;;5072915;28;20028;-75
2022/10/22 11:49:24;;;;;;;13.50;7.60;;;;;;;;;;5072943;28;20024;-76
2022/10/22 11:51:50;;;;;;;10.25;7.30;;;;;;;;;;5072827;28;20052;-75
2022/10/22 11:54:36;;;;;;;10.95;7.43;;;;;;;;;;5074125;28;20027;-76
2022/10/22 11:57:13;;;;;;;10.65;7.15;;;;;;;;;;5072606;28;20054;-76
2022/10/22 11:59:46;;;;;;;10.95;6.68;;;;;;;;;;5072746;28;20079;-76
2022/10/22 12:02:30;;;;;;;10.30;6.90;;;;;;;;;;5074073;28;20114;-76
2022/10/22 12:05:30;;;;;;;13.25;6.53;;;;;;;;;;5074260;28;20079;-75
2022/10/22 12:08:20;;;;;;;8.90;6.40;;;;;;;;;;5074018;28;20031;-75
2022/10/22 12:11:08;;;;;;;11.00;6.57;;;;;;;;;;5073864;28;20082;-75
2022/10/22 12:14:10;;;;;;;9.00;6.75;;;;;;;;;;5066565;28;20037;-76
2022/10/22 12:16:45;;;;;;;10.23;6.60;;;;;;;;;;5073756;28;20035;-76
2022/10/22 12:19:30;;;;;;;10.95;6.50;;;;;;;;;;5072322;28;20055;-76
2022/10/22 12:22:40;;;;;;;9.02;6.15;;;;;;;;;;5072472;28;20021;-75
2022/10/22 12:25:21;;;;;;;8.65;5.75;;;;;;;;;;5064311;28;20123;-76
2022/10/22 12:27:53;;;;;;;8.70;5.68;;;;;;;;;;5073746;28;20020;-76
2022/10/22 12:30:28;;;;;;;9.35;5.95;;;;;;;;;;5072571;28;20397;-74
2022/10/22 12:32:59;;;;;;;14.27;7.15;;;;;;;;;;5072222;28;20033;-75
2022/10/22 12:35:28;;;;;;;11.10;6.38;;;;;;;;;;5073742;28;20077;-75
2022/10/22 12:37:56;;;;;;;9.43;6.00;;;;;;;;;;5072009;28;20024;-76
2022/10/22 12:40:28;;;;;;;9.80;6.38;;;;;;;;;;5073601;28;20024;-76
2022/10/22 12:42:55;;;;;;;8.13;5.72;;;;;;;;;;5073522;28;20032;-76
2022/10/22 12:45:22;;;;;;;11.02;5.50;;;;;;;;;;5073299;28;20035;-75
2022/10/22 12:47:50;;;;;;;8.43;5.22;;;;;;;;;;5071902;28;20052;-77
2022/10/22 12:50:29;;;;;;;10.80;5.43;;;;;;;;;;5072673;28;20031;-75
2022/10/22 12:52:55;;;;;;;7.88;5.65;;;;;;;;;;5071770;28;20091;-75
2022/10/22 12:55:24;;;;;;;9.82;5.70;;;;;;;;;;5073095;28;20063;-75
2022/10/22 12:57:50;;;;;;;7.32;5.15;;;;;;;;;;5071669;28;20029;-76
2022/10/22 13:00:31;;;;;;;13.18;5.38;;;;;;;;;;5072981;28;20486;-76
2022/10/22 13:03:01;;;;;;;8.45;5.28;;;;;;;;;;5073360;28;20024;-75
2022/10/22 13:05:32;;;;;;;9.10;5.32;;;;;;;;;;5073134;28;20103;-76
2022/10/22 13:08:07;;;;;;;9.45;4.95;;;;;;;;;;5071831;28;20013;-76
2022/10/22 13:10:35;;;;;;;7.75;5.50;;;;;;;;;;5073194;28;20507;-75
2022/10/22 13:13:05;;;;;;;6.72;4.82;;;;;;;;;;5073018;28;20040;-75
2022/10/22 13:15:30;;;;;;;9.13;5.60;;;;;;;;;;5072927;28;20112;-75
2022/10/22 13:18:14;;;;;;;6.87;5.00;;;;;;;;;;5073103;28;20111;-75
2022/10/22 13:20:55;;;;;;;8.10;5.18;;;;;;;;;;5071737;28;20261;-75
2022/10/22 13:23:23;;;;;;;7.78;4.75;;;;;;;;;;5072695;28;20378;-74
2022/10/22 13:26:16;;;;;;;6.30;4.50;;;;;;;;;;5072809;28;20026;-75
2022/10/22 13:28:48;;;;;;;5.82;4.32;;;;;;;;;;5069504;28;20079;-75
2022/10/22 13:31:23;;;;;;;7.90;4.32;;;;;;;;;;5072996;28;20044;-75
2022/10/22 13:33:56;;;;;;;11.07;4.50;;;;;;;;;;5071427;28;20031;-76
2022/10/22 13:36:22;;;;;;;6.97;4.28;;;;;;;;;;5071434;28;20054;-75
2022/10/22 13:38:47;;;;;;;7.07;4.10;;;;;;;;;;5072860;28;20020;-75
2022/10/22 13:41:23;;;;;;;5.72;4.20;;;;;;;;;;5072586;28;20020;-75
2022/10/22 13:43:50;;;;;;;6.82;4.43;;;;;;;;;;5072746;28;20512;-75
2022/10/22 13:46:16;;;;;;;7.60;4.35;;;;;;;;;;5072661;28;20032;-76
2022/10/22 13:48:42;;;;;;;6.22;4.38;;;;;;;;;;5071367;28;20016;-75
2022/10/22 13:51:18;;;;;;;9.93;4.68;;;;;;;;;;5072634;28;20119;-76
2022/10/22 13:53:45;;;;;;;7.30;4.35;;;;;;;;;;5072426;28;20020;-75
2022/10/22 13:56:15;;;;;;;5.85;4.10;;;;;;;;;;5072441;28;20031;-74
2022/10/22 13:58:42;;;;;;;6.82;4.00;;;;;;;;;;5071250;28;20486;-75
2022/10/22 14:01:18;;;;;;;7.25;4.18;;;;;;;;;;5071080;28;20029;-76
2022/10/22 14:03:45;;;;;;;6.38;4.55;;;;;;;;;;5073635;28;20028;-74
2022/10/22 14:06:15;;;;;;;7.93;4.90;;;;;;;;;;5076164;28;20028;-75
2022/10/22 14:08:41;;;;;;;6.65;4.88;;;;;;;;;;5074907;28;20048;-75
2022/10/22 14:11:09;;;;;;;9.63;5.07;;;;;;;;;;5076065;28;20382;-75
2022/10/22 14:13:35;;;;;;;7.95;4.90;;;;;;;;;;5075990;28;20025;-76
2022/10/22 14:16:00;;;;;;;7.05;4.90;;;;;;;;;;5076131;28;20032;-75
2022/10/22 14:18:30;;;;;;;6.97;4.97;;;;;;;;;;5076181;28;20021;-76
2022/10/22 14:20:58;;;;;;;3.55;2.90;;;;;;;;;;5076369;28;20088;-76
2022/10/22 14:23:29;;;;;;;2.83;1.88;;;;;;;;;;5075790;28;20020;-75
2022/10/22 14:25:55;;;;;;;5.63;2.40;;;;;;;;;;5076140;28;20023;-75
2022/10/22 14:28:20;;;;;;;2.10;1.30;;;;;;;;;;5076058;28;20021;-75
2022/10/22 14:30:46;;;;;;;2.13;1.30;;;;;;;;;;5075767;28;20366;-75
2022/10/22 14:33:18;;;;;;;4.88;0.98;;;;;;;;;;5075660;28;20082;-76
2022/10/22 14:35:44;;;;;;;2.47;1.05;;;;;;;;;;5075695;28;20021;-75
2022/10/22 14:38:09;;;;;;;1.27;0.85;;;;;;;;;;5074433;28;20028;-76
2022/10/22 14:40:37;;;;;;;1.58;0.90;;;;;;;;;;5074418;28;20504;-75